Atmore, Alabama
Current Conditions -  °F | °C
As of 12:56 AM on Thursday 23 Oct 2014 (Local Time) from KNSE Reporting Station
Clear Clear  
Wind Chill: 46°   Ceiling: Unl
Heat Index: 48°   Visibility: 10mi
Dew Point: 43°   Wind: 5mph
Humidity: 83%   Direction: 20°NNE
Pressure: 30.06"   Gusts: NA
Location:  31.03°N, 87.49°W
Report Text: KNSE 230556Z AUTO 02004KT 10SM CLR 09/06 A3006 RMK AO2 SLP166 T00890061 10178 20083 402500083 58012 PWINO $
Loading
Personal Weather Stations






























Interactive Weather Map New forecast layout! Learn more

10-Day Weather Forecast

Advertisements
Track Severe Weather on mobile